Time;durP1;ratioP1;P1;durP2;ratioP2;P2;SDS_P1;SDS_P2;PMS_P1;PMS_P2;Temp;Humidity;BMP_temperature;BMP_pressure;BME280_temperature;BME280_humidity;BME280_pressure;Samples;Min_cycle;Max_cycle;Signal;HPM_P1;HPM_P2
2023/06/25 00:02:24;;;;;;;;;;;;;;;22.00;28.96;97758.53;5000318;28;1001;-81
2023/06/25 00:04:49;;;;;;;;;;;;;;;22.25;29.10;97764.19;4999177;28;1037;-81
2023/06/25 00:07:16;;;;;;;;;;;;;;;22.36;28.75;97761.78;5000013;28;929;-80
2023/06/25 00:09:50;;;;;;;;;;;;;;;22.35;28.75;97765.88;4998779;28;987;-80
2023/06/25 00:12:16;;;;;;;;;;;;;;;22.45;28.37;97757.50;4983140;28;990;-80
2023/06/25 00:14:41;;;;;;;;;;;;;;;22.31;28.79;97758.75;4999085;28;1007;-80
2023/06/25 00:17:07;;;;;;;;;;;;;;;22.18;29.12;97758.78;4999693;28;1883;-81
2023/06/25 00:19:32;;;;;;;;;;;;;;;22.26;28.81;97760.13;4982236;28;921;-81
2023/06/25 00:21:57;;;;;;;;;;;;;;;22.11;29.28;97756.16;4984180;28;1092;-81
2023/06/25 00:24:23;;;;;;;;;;;;;;;22.07;29.16;97752.59;4966673;28;1273;-80
2023/06/25 00:26:49;;;;;;;;;;;;;;;22.21;29.01;97751.41;4960785;29;1102;-80
2023/06/25 00:29:14;;;;;;;;;;;;;;;22.42;28.75;97755.56;4943855;29;1154;-80
2023/06/25 00:31:41;;;;;;;;;;;;;;;22.23;29.00;97757.41;4960798;29;921;-80
2023/06/25 00:34:08;;;;;;;;;;;;;;;22.33;28.88;97754.22;4943678;29;1292;-80
2023/06/25 00:36:36;;;;;;;;;;;;;;;22.22;28.82;97753.75;4960833;29;1914;-81
2023/06/25 00:39:05;;;;;;;;;;;;;;;22.13;29.09;97750.06;4959947;29;1232;-81
2023/06/25 00:41:30;;;;;;;;;;;;;;;22.14;29.05;97758.09;4960526;29;1175;-81
2023/06/25 00:43:57;;;;;;;;;;;;;;;22.15;28.74;97759.69;4962819;28;1062;-81
2023/06/25 00:46:23;;;;;;;;;;;;;;;22.29;28.74;97766.94;4932227;28;1225;-80
2023/06/25 00:48:49;;;;;;;;;;;;;;;22.16;29.04;97766.91;4924827;29;1341;-80
2023/06/25 00:51:15;;;;;;;;;;;;;;;22.35;28.43;97757.38;4925875;29;1196;-81
2023/06/25 00:53:41;;;;;;;;;;;;;;;22.17;28.65;97757.16;4924098;29;1447;-80
2023/06/25 00:56:06;;;;;;;;;;;;;;;22.23;28.72;97754.59;4925637;29;1902;-80
2023/06/25 00:58:34;;;;;;;;;;;;;;;22.08;29.24;97762.72;4986993;28;987;-81
2023/06/25 01:01:01;;;;;;;;;;;;;;;22.26;28.76;97747.97;4983812;28;1132;-80
2023/06/25 01:03:27;;;;;;;;;;;;;;;21.91;29.31;97756.34;4946917;29;1253;-81
2023/06/25 01:05:54;;;;;;;;;;;;;;;21.96;29.26;97746.50;4949031;29;963;-80
2023/06/25 01:08:20;;;;;;;;;;;;;;;22.03;29.06;97751.97;4931373;29;1494;-81
2023/06/25 01:10:46;;;;;;;;;;;;;;;22.31;28.82;97744.56;4929523;29;1239;-81
2023/06/25 01:13:11;;;;;;;;;;;;;;;22.11;28.98;97742.00;4912457;29;1090;-80
2023/06/25 01:15:37;;;;;;;;;;;;;;;22.11;28.83;97747.66;4945050;29;1981;-80
2023/06/25 01:18:04;;;;;;;;;;;;;;;22.05;28.89;97743.78;4928184;29;1574;-80
2023/06/25 01:20:30;;;;;;;;;;;;;;;22.05;29.14;97749.44;4959418;28;1146;-80
2023/06/25 01:22:56;;;;;;;;;;;;;;;22.01;29.04;97743.09;4966836;28;1058;-80
2023/06/25 01:25:21;;;;;;;;;;;;;;;22.05;29.23;97736.06;4966789;28;1200;-81
2023/06/25 01:27:50;;;;;;;;;;;;;;;22.18;28.73;97750.28;4966956;28;1010;-80
2023/06/25 01:30:16;;;;;;;;;;;;;;;22.24;28.78;97739.94;4967471;28;901;-80
2023/06/25 01:32:41;;;;;;;;;;;;;;;22.38;28.42;97738.66;4983210;28;1261;-81
2023/06/25 01:35:07;;;;;;;;;;;;;;;22.42;28.31;97741.38;4997066;28;1949;-80
2023/06/25 01:37:33;;;;;;;;;;;;;;;22.05;29.05;97738.13;5002610;28;1355;-80
2023/06/25 01:39:59;;;;;;;;;;;;;;;22.16;28.70;97743.47;4985449;28;975;-80
2023/06/25 01:42:26;;;;;;;;;;;;;;;22.02;29.29;97739.00;5018591;28;947;-80
2023/06/25 01:44:51;;;;;;;;;;;;;;;22.24;28.80;97734.28;5043304;28;809;-81
2023/06/25 01:47:17;;;;;;;;;;;;;;;22.29;28.89;97742.22;5009297;28;1124;-80
2023/06/25 01:49:42;;;;;;;;;;;;;;;22.38;28.62;97744.31;4993237;28;1152;-81
2023/06/25 01:52:08;;;;;;;;;;;;;;;22.49;28.52;97741.16;5026562;28;1115;-81
2023/06/25 01:54:34;;;;;;;;;;;;;;;22.26;28.70;97748.78;4985629;28;1251;-81
2023/06/25 01:57:00;;;;;;;;;;;;;;;22.20;28.85;97739.25;4986453;28;2001;-81
2023/06/25 01:59:27;;;;;;;;;;;;;;;22.23;28.64;97755.38;4969177;28;1121;-81
2023/06/25 02:01:52;;;;;;;;;;;;;;;22.47;28.61;97752.16;4970394;28;1383;-81
2023/06/25 02:04:19;;;;;;;;;;;;;;;21.83;29.29;97752.97;4985248;28;1080;-80
2023/06/25 02:06:44;;;;;;;;;;;;;;;22.17;28.90;97757.16;4986096;28;1163;-80
2023/06/25 02:09:10;;;;;;;;;;;;;;;22.06;28.87;97757.50;4984948;28;934;-80
2023/06/25 02:11:36;;;;;;;;;;;;;;;22.22;28.95;97752.97;4985903;28;1217;-80
2023/06/25 02:14:03;;;;;;;;;;;;;;;22.00;29.02;97752.84;4984698;28;1351;-81
2023/06/25 02:16:28;;;;;;;;;;;;;;;22.10;29.16;97760.22;4986256;28;1985;-80
2023/06/25 02:18:54;;;;;;;;;;;;;;;22.06;28.85;97753.88;4984872;28;1082;-81
2023/06/25 02:21:20;;;;;;;;;;;;;;;22.31;28.50;97756.72;4969668;28;1037;-81
2023/06/25 02:23:47;;;;;;;;;;;;;;;22.14;28.88;97751.63;4984908;28;1231;-80
2023/06/25 02:26:13;;;;;;;;;;;;;;;22.15;28.90;97754.00;4985704;28;1084;-80
2023/06/25 02:28:38;;;;;;;;;;;;;;;22.20;28.70;97761.16;4984559;28;1139;-81
2023/06/25 02:31:04;;;;;;;;;;;;;;;22.17;28.72;97760.00;4991131;28;1116;-81
2023/06/25 02:33:29;;;;;;;;;;;;;;;21.94;29.28;97760.34;5008330;28;1304;-81
2023/06/25 02:35:55;;;;;;;;;;;;;;;21.90;29.11;97765.31;5026192;28;1922;-80
2023/06/25 02:38:20;;;;;;;;;;;;;;;21.87;28.95;97766.25;5042116;28;833;-81
2023/06/25 02:40:46;;;;;;;;;;;;;;;22.02;28.77;97756.00;5009325;28;844;-80
2023/06/25 02:43:12;;;;;;;;;;;;;;;22.07;28.87;97758.28;5024240;28;956;-81
2023/06/25 02:45:37;;;;;;;;;;;;;;;21.98;28.96;97770.31;4992394;28;1386;-81
2023/06/25 02:48:04;;;;;;;;;;;;;;;21.98;28.86;97770.31;5007096;28;1128;-80
2023/06/25 02:50:30;;;;;;;;;;;;;;;22.20;28.58;97767.59;5008056;28;1243;-80
2023/06/25 02:52:55;;;;;;;;;;;;;;;21.96;28.79;97752.97;5024731;28;987;-81
2023/06/25 02:55:21;;;;;;;;;;;;;;;21.92;29.04;97757.19;5007777;28;1894;-80
2023/06/25 02:57:46;;;;;;;;;;;;;;;22.04;28.77;97745.03;5024141;28;1077;-80
2023/06/25 03:00:12;;;;;;;;;;;;;;;22.08;28.60;97748.56;5007984;28;759;-80
2023/06/25 03:02:39;;;;;;;;;;;;;;;21.91;28.73;97749.91;5008489;28;1207;-80
2023/06/25 03:05:06;;;;;;;;;;;;;;;22.06;28.82;97748.19;5024389;28;1227;-80
2023/06/25 03:07:31;;;;;;;;;;;;;;;22.17;28.56;97733.72;5007992;28;1158;-80
2023/06/25 03:09:57;;;;;;;;;;;;;;;22.32;28.25;97729.94;5007184;28;1244;-80
2023/06/25 03:12:23;;;;;;;;;;;;;;;22.21;28.10;97732.34;5008154;28;1132;-80
2023/06/25 03:14:49;;;;;;;;;;;;;;;22.18;28.59;97730.44;5007596;28;1145;-81
2023/06/25 03:17:14;;;;;;;;;;;;;;;22.07;28.41;97741.28;5008560;28;2355;-80
2023/06/25 03:19:40;;;;;;;;;;;;;;;22.15;28.51;97737.00;5007312;28;1147;-80
2023/06/25 03:22:05;;;;;;;;;;;;;;;22.20;28.41;97736.44;5024488;28;802;-81
2023/06/25 03:24:33;;;;;;;;;;;;;;;22.33;28.31;97731.56;5040223;28;895;-80
2023/06/25 03:27:00;;;;;;;;;;;;;;;22.16;28.53;97729.28;4992312;28;1234;-81
2023/06/25 03:29:25;;;;;;;;;;;;;;;22.16;28.58;97727.25;5023358;28;1179;-81
2023/06/25 03:31:51;;;;;;;;;;;;;;;22.26;28.40;97736.66;5041791;28;1245;-80
2023/06/25 03:34:20;;;;;;;;;;;;;;;22.10;28.70;97717.72;5007342;28;1266;-80
2023/06/25 03:36:45;;;;;;;;;;;;;;;21.99;28.85;97717.28;5007807;28;1914;-80
2023/06/25 03:39:11;;;;;;;;;;;;;;;22.20;28.56;97725.09;5007073;28;1243;-80
2023/06/25 03:41:36;;;;;;;;;;;;;;;22.21;28.42;97714.56;5024033;28;1582;-80
2023/06/25 03:44:03;;;;;;;;;;;;;;;22.29;28.40;97718.75;5006950;28;1292;-80
2023/06/25 03:46:30;;;;;;;;;;;;;;;22.07;28.64;97718.63;5007744;28;1149;-80
2023/06/25 03:48:55;;;;;;;;;;;;;;;22.16;28.74;97720.78;4990440;28;1172;-81
2023/06/25 03:51:23;;;;;;;;;;;;;;;22.23;28.44;97712.88;5007932;28;1231;-80
2023/06/25 03:53:49;;;;;;;;;;;;;;;22.09;28.62;97714.09;5005593;28;1277;-80
2023/06/25 03:56:14;;;;;;;;;;;;;;;22.17;28.51;97723.16;5006292;28;1981;-80
2023/06/25 03:58:40;;;;;;;;;;;;;;;21.79;29.08;97726.78;5022166;28;779;-80
2023/06/25 04:01:05;;;;;;;;;;;;;;;22.02;28.96;97728.50;4990537;28;1250;-80
2023/06/25 04:03:31;;;;;;;;;;;;;;;22.28;28.41;97729.28;5000411;28;1084;-81
2023/06/25 04:05:56;;;;;;;;;;;;;;;22.25;28.30;97730.19;5019418;28;877;-80
2023/06/25 04:08:22;;;;;;;;;;;;;;;22.06;28.97;97725.53;5000689;28;1065;-81
2023/06/25 04:10:47;;;;;;;;;;;;;;;22.13;28.95;97738.72;4970570;28;1129;-80
2023/06/25 04:13:13;;;;;;;;;;;;;;;22.10;28.94;97737.53;4984823;28;1176;-80
2023/06/25 04:15:38;;;;;;;;;;;;;;;22.28;28.31;97740.63;5001775;28;1983;-81
2023/06/25 04:18:04;;;;;;;;;;;;;;;22.17;28.63;97742.22;5000873;28;1144;-80
2023/06/25 04:20:30;;;;;;;;;;;;;;;22.15;28.83;97742.66;5001512;28;785;-80
2023/06/25 04:22:56;;;;;;;;;;;;;;;22.04;28.76;97731.66;4984899;28;1211;-81
2023/06/25 04:25:21;;;;;;;;;;;;;;;21.93;28.99;97736.09;4985158;28;1358;-80
2023/06/25 04:27:47;;;;;;;;;;;;;;;21.97;29.06;97736.78;4985441;28;1135;-81
2023/06/25 04:30:13;;;;;;;;;;;;;;;22.11;29.05;97736.31;5017785;28;791;-80
2023/06/25 04:32:39;;;;;;;;;;;;;;;22.39;28.30;97739.47;4985141;28;1354;-80
2023/06/25 04:35:05;;;;;;;;;;;;;;;22.32;28.65;97741.28;4980885;28;1237;-80
2023/06/25 04:37:31;;;;;;;;;;;;;;;22.29;28.38;97733.72;4948916;28;1891;-79
2023/06/25 04:39:57;;;;;;;;;;;;;;;22.29;28.74;97736.53;4994634;28;1295;-79
2023/06/25 04:42:22;;;;;;;;;;;;;;;22.24;28.96;97739.94;4968477;28;1223;-79
2023/06/25 04:44:48;;;;;;;;;;;;;;;22.19;29.02;97732.03;5000126;28;899;-79
2023/06/25 04:47:13;;;;;;;;;;;;;;;22.30;28.83;97721.13;5000786;28;747;-79
2023/06/25 04:49:39;;;;;;;;;;;;;;;22.28;28.69;97720.78;4996561;28;1156;-79
2023/06/25 04:52:04;;;;;;;;;;;;;;;22.21;28.83;97729.50;4980766;28;1202;-79
2023/06/25 04:54:30;;;;;;;;;;;;;;;22.39;28.72;97728.13;4980004;28;1151;-80
2023/06/25 04:56:55;;;;;;;;;;;;;;;22.24;28.83;97739.16;4997337;28;1967;-79
2023/06/25 04:59:21;;;;;;;;;;;;;;;22.14;29.13;97734.63;4980159;28;1234;-79
2023/06/25 05:01:47;;;;;;;;;;;;;;;22.07;29.23;97729.94;4997169;28;814;-79
2023/06/25 05:04:12;;;;;;;;;;;;;;;22.19;29.13;97740.53;4996361;28;901;-79
2023/06/25 05:06:37;;;;;;;;;;;;;;;21.95;29.32;97739.25;5000572;28;889;-79
2023/06/25 05:09:03;;;;;;;;;;;;;;;22.04;29.12;97742.19;4967040;28;1124;-80
2023/06/25 05:11:28;;;;;;;;;;;;;;;22.26;28.84;97734.59;5000422;28;787;-79
2023/06/25 05:13:54;;;;;;;;;;;;;;;22.04;29.42;97730.88;4983024;28;775;-80
2023/06/25 05:16:19;;;;;;;;;;;;;;;21.88;29.65;97731.00;5016878;28;1942;-79
2023/06/25 05:18:45;;;;;;;;;;;;;;;22.12;29.21;97720.91;5016176;28;818;-79
2023/06/25 05:21:10;;;;;;;;;;;;;;;22.14;29.14;97718.44;4999088;28;1104;-79
2023/06/25 05:23:43;;;;;;;;;;;;;;;22.41;28.94;97722.78;5020242;28;756;-79
2023/06/25 05:26:09;;;;;;;;;;;;;;;22.35;28.98;97720.53;5021699;28;869;-79
2023/06/25 05:28:34;;;;;;;;;;;;;;;22.17;29.37;97728.84;5004095;28;1182;-79
2023/06/25 05:31:00;;;;;;;;;;;;;;;22.25;29.18;97720.91;5016572;28;939;-80
2023/06/25 05:33:25;;;;;;;;;;;;;;;22.25;29.30;97718.84;5001829;28;1101;-79
2023/06/25 05:35:51;;;;;;;;;;;;;;;22.20;29.53;97716.59;4980439;28;1903;-79
2023/06/25 05:38:16;;;;;;;;;;;;;;;22.36;29.03;97719.28;4979934;28;879;-79
2023/06/25 05:40:42;;;;;;;;;;;;;;;22.32;29.24;97721.44;4980554;28;896;-79
2023/06/25 05:43:07;;;;;;;;;;;;;;;22.15;29.75;97714.34;4979846;28;791;-79
2023/06/25 05:45:33;;;;;;;;;;;;;;;21.93;30.10;97702.88;4964320;28;1443;-80
2023/06/25 05:47:58;;;;;;;;;;;;;;;22.29;29.49;97708.19;4965810;28;820;-79
2023/06/25 05:50:24;;;;;;;;;;;;;;;22.30;29.34;97715.44;4968531;28;902;-80
2023/06/25 05:52:49;;;;;;;;;;;;;;;22.25;29.50;97703.91;4983710;28;903;-79
2023/06/25 05:55:15;;;;;;;;;;;;;;;22.23;29.54;97703.56;4967463;28;1902;-79
2023/06/25 05:57:40;;;;;;;;;;;;;;;22.26;29.76;97711.94;4983835;28;1079;-79
2023/06/25 06:00:06;;;;;;;;;;;;;;;22.46;29.41;97717.31;4999518;28;724;-79
2023/06/25 06:02:38;;;;;;;;;;;;;;;22.32;29.89;97704.44;4980453;28;863;-80
2023/06/25 06:05:04;;;;;;;;;;;;;;;22.26;29.88;97706.25;4947872;28;889;-80
2023/06/25 06:07:29;;;;;;;;;;;;;;;22.00;30.18;97701.84;4964605;28;858;-80
2023/06/25 06:09:55;;;;;;;;;;;;;;;22.34;29.98;97699.13;4963878;28;697;-79
2023/06/25 06:12:20;;;;;;;;;;;;;;;22.24;29.74;97703.09;4980681;28;918;-79
2023/06/25 06:14:46;;;;;;;;;;;;;;;22.14;30.33;97701.41;4963676;28;713;-80
2023/06/25 06:17:12;;;;;;;;;;;;;;;22.24;30.21;97700.28;4967263;28;1974;-79
2023/06/25 06:19:37;;;;;;;;;;;;;;;22.36;29.97;97690.94;4983238;28;1122;-80
2023/06/25 06:22:03;;;;;;;;;;;;;;;22.17;30.31;97694.81;4999453;28;805;-79
2023/06/25 06:24:28;;;;;;;;;;;;;;;22.24;30.30;97694.59;4999336;28;787;-80
2023/06/25 06:26:54;;;;;;;;;;;;;;;22.12;30.42;97692.56;4963826;28;964;-79
2023/06/25 06:29:19;;;;;;;;;;;;;;;22.04;30.62;97691.22;4979268;28;889;-79
2023/06/25 06:31:45;;;;;;;;;;;;;;;22.13;30.32;97693.38;4941812;29;1072;-79
2023/06/25 06:34:11;;;;;;;;;;;;;;;22.65;29.61;97695.63;4945338;29;810;-79
2023/06/25 06:36:36;;;;;;;;;;;;;;;22.76;29.68;97696.03;4925793;29;1903;-80
2023/06/25 06:39:02;;;;;;;;;;;;;;;22.48;30.01;97685.69;4941233;29;1264;-80
2023/06/25 06:41:28;;;;;;;;;;;;;;;22.25;30.54;97684.84;4941861;29;780;-80
2023/06/25 06:43:53;;;;;;;;;;;;;;;22.50;30.28;97686.03;4940655;29;909;-80
2023/06/25 06:46:19;;;;;;;;;;;;;;;22.39;30.36;97682.78;4957623;28;788;-79
2023/06/25 06:48:44;;;;;;;;;;;;;;;22.53;30.40;97682.25;4940870;29;1180;-80
2023/06/25 06:51:10;;;;;;;;;;;;;;;22.44;30.57;97685.81;4957236;28;866;-80
2023/06/25 06:53:35;;;;;;;;;;;;;;;22.38;30.59;97681.19;4956313;29;832;-80
2023/06/25 06:56:01;;;;;;;;;;;;;;;22.41;30.46;97675.38;4957995;29;1903;-80
2023/06/25 06:58:26;;;;;;;;;;;;;;;22.26;30.83;97675.09;4923615;29;1230;-80
2023/06/25 07:00:52;;;;;;;;;;;;;;;22.05;31.10;97687.91;4941210;29;768;-80
2023/06/25 07:03:17;;;;;;;;;;;;;;;22.38;30.94;97681.19;4927440;28;1523;-79
2023/06/25 07:05:43;;;;;;;;;;;;;;;22.57;30.58;97682.94;4979786;28;1050;-79
2023/06/25 07:08:08;;;;;;;;;;;;;;;22.41;30.50;97681.06;4964362;28;938;-80
2023/06/25 07:10:35;;;;;;;;;;;;;;;22.33;30.81;97674.84;5000832;28;874;-79
2023/06/25 07:13:00;;;;;;;;;;;;;;;22.41;30.79;97674.59;5000823;28;783;-79
2023/06/25 07:15:26;;;;;;;;;;;;;;;22.31;30.66;97674.50;5000103;28;1902;-80
2023/06/25 07:17:52;;;;;;;;;;;;;;;22.44;30.89;97679.38;5000055;28;790;-80
2023/06/25 07:20:18;;;;;;;;;;;;;;;22.19;31.27;97669.69;4999516;28;759;-79
2023/06/25 07:22:43;;;;;;;;;;;;;;;22.22;31.26;97677.25;5000640;28;899;-79
2023/06/25 07:25:09;;;;;;;;;;;;;;;22.24;31.03;97677.59;4998834;28;827;-79
2023/06/25 07:27:35;;;;;;;;;;;;;;;22.50;30.87;97677.53;4999901;28;882;-79
2023/06/25 07:30:01;;;;;;;;;;;;;;;22.48;30.86;97674.34;5000304;28;791;-80
2023/06/25 07:32:26;;;;;;;;;;;;;;;22.64;30.34;97671.34;4983384;28;1122;-80
2023/06/25 07:34:52;;;;;;;;;;;;;;;22.39;30.98;97672.22;4998611;28;780;-80
2023/06/25 07:37:18;;;;;;;;;;;;;;;22.18;31.54;97673.75;4983508;28;1969;-80
2023/06/25 07:39:43;;;;;;;;;;;;;;;22.44;30.87;97674.47;4999135;28;775;-79
2023/06/25 07:42:09;;;;;;;;;;;;;;;22.60;30.70;97670.69;5000676;28;819;-80
2023/06/25 07:44:35;;;;;;;;;;;;;;;22.58;30.76;97673.94;4999627;28;1138;-79
2023/06/25 07:47:00;;;;;;;;;;;;;;;22.74;30.40;97670.16;4999869;28;893;-79
2023/06/25 07:49:26;;;;;;;;;;;;;;;22.35;31.28;97672.34;4997802;28;783;-79
2023/06/25 07:51:51;;;;;;;;;;;;;;;22.43;30.97;97672.88;4982340;28;763;-79
2023/06/25 07:54:17;;;;;;;;;;;;;;;22.33;31.29;97674.84;4999658;28;830;-80
2023/06/25 07:56:44;;;;;;;;;;;;;;;22.39;31.03;97671.44;4983226;28;1906;-79
2023/06/25 07:59:12;;;;;;;;;;;;;;;22.42;31.28;97674.13;4999681;28;827;-79
2023/06/25 08:01:38;;;;;;;;;;;;;;;22.44;31.08;97668.03;4982782;28;870;-79
2023/06/25 08:04:04;;;;;;;;;;;;;;;22.66;30.60;97657.50;4964700;28;1243;-80
2023/06/25 08:06:29;;;;;;;;;;;;;;;22.91;30.22;97655.81;4997664;28;867;-80
2023/06/25 08:08:55;;;;;;;;;;;;;;;22.84;30.11;97663.28;4964500;28;864;-79
2023/06/25 08:11:20;;;;;;;;;;;;;;;22.45;31.10;97658.25;4981457;28;830;-80
2023/06/25 08:13:46;;;;;;;;;;;;;;;22.58;30.88;97656.16;4996831;28;870;-79
2023/06/25 08:16:11;;;;;;;;;;;;;;;22.61;30.89;97658.09;4981454;28;1875;-79
2023/06/25 08:18:37;;;;;;;;;;;;;;;22.41;30.92;97652.72;4964616;28;1188;-79
2023/06/25 08:21:02;;;;;;;;;;;;;;;22.68;30.86;97648.50;4998074;28;724;-80
2023/06/25 08:23:28;;;;;;;;;;;;;;;22.82;30.50;97648.78;4980739;28;828;-80
2023/06/25 08:25:53;;;;;;;;;;;;;;;22.62;30.95;97656.81;4965775;28;1222;-79
2023/06/25 08:28:19;;;;;;;;;;;;;;;22.58;30.62;97650.47;4964441;28;910;-79
2023/06/25 08:30:44;;;;;;;;;;;;;;;22.70;30.42;97646.03;4997891;28;815;-80
2023/06/25 08:33:10;;;;;;;;;;;;;;;22.30;31.31;97644.59;4964105;28;1151;-79
2023/06/25 08:35:35;;;;;;;;;;;;;;;22.43;30.88;97643.75;4976680;28;1973;-79
2023/06/25 08:38:01;;;;;;;;;;;;;;;22.66;30.79;97640.47;4965975;28;1229;-79
2023/06/25 08:40:27;;;;;;;;;;;;;;;22.56;30.72;97638.81;4999619;28;874;-79
2023/06/25 08:42:52;;;;;;;;;;;;;;;22.55;30.80;97640.06;4982168;28;1057;-79
2023/06/25 08:45:18;;;;;;;;;;;;;;;22.59;30.98;97635.88;4999175;28;755;-79
2023/06/25 08:47:43;;;;;;;;;;;;;;;22.56;30.96;97630.31;4997892;28;734;-79
2023/06/25 08:50:09;;;;;;;;;;;;;;;22.55;30.91;97632.34;4998093;28;775;-79
2023/06/25 08:52:34;;;;;;;;;;;;;;;22.70;30.70;97629.00;4998528;28;1072;-79
2023/06/25 08:55:00;;;;;;;;;;;;;;;22.56;30.72;97616.94;4982057;28;1108;-80
2023/06/25 08:57:25;;;;;;;;;;;;;;;22.73;30.69;97620.34;4999527;28;1985;-80
2023/06/25 08:59:51;;;;;;;;;;;;;;;22.74;30.52;97624.78;4998015;28;759;-79
2023/06/25 09:02:17;;;;;;;;;;;;;;;22.82;30.62;97617.59;4998582;28;799;-80
2023/06/25 09:04:43;;;;;;;;;;;;;;;22.93;30.48;97622.09;4997749;28;755;-80
2023/06/25 09:07:11;;;;;;;;;;;;;;;22.62;31.16;97622.78;4998174;28;839;-80
2023/06/25 09:09:36;;;;;;;;;;;;;;;22.48;31.28;97618.41;4981643;28;1112;-80
2023/06/25 09:12:02;;;;;;;;;;;;;;;22.45;31.35;97625.03;4977943;28;1009;-79
2023/06/25 09:14:32;;;;;;;;;;;;;;;22.35;31.60;97620.53;4945326;28;1065;-79
2023/06/25 09:16:57;;;;;;;;;;;;;;;22.49;31.41;97613.56;4977672;28;1983;-80
2023/06/25 09:19:23;;;;;;;;;;;;;;;22.47;31.40;97616.06;4977199;28;799;-80
2023/06/25 09:21:48;;;;;;;;;;;;;;;22.56;31.23;97624.63;4961599;28;1105;-79
2023/06/25 09:24:18;;;;;;;;;;;;;;;22.48;31.12;97600.63;4980860;28;776;-79
2023/06/25 09:27:01;;;;;;;;;;;;;;;22.80;30.95;97600.25;4965248;28;1243;-79
2023/06/25 09:29:27;;;;;;;;;;;;;;;22.78;30.76;97607.63;4964339;28;1098;-79
2023/06/25 09:31:52;;;;;;;;;;;;;;;22.51;31.27;97605.38;4981088;28;1334;-79
2023/06/25 09:34:18;;;;;;;;;;;;;;;22.38;31.50;97596.13;4944773;29;1474;-79
2023/06/25 09:36:44;;;;;;;;;;;;;;;22.57;31.24;97603.53;4945872;29;1891;-79
2023/06/25 09:39:10;;;;;;;;;;;;;;;22.84;30.71;97602.94;4945231;29;1098;-80
2023/06/25 09:41:36;;;;;;;;;;;;;;;22.59;31.13;97606.72;4946291;29;721;-80
2023/06/25 09:44:05;;;;;;;;;;;;;;;22.73;30.91;97605.38;4946337;28;1240;-79
2023/06/25 09:46:34;;;;;;;;;;;;;;;22.73;30.91;97594.81;4980685;28;919;-79
2023/06/25 09:49:01;;;;;;;;;;;;;;;22.41;31.51;97583.88;4964249;28;954;-79
2023/06/25 09:51:30;;;;;;;;;;;;;;;22.61;30.98;97587.19;4965020;28;1203;-79
2023/06/25 09:53:56;;;;;;;;;;;;;;;22.61;31.25;97584.34;4948153;28;873;-79
2023/06/25 09:56:23;;;;;;;;;;;;;;;22.46;31.57;97580.47;4981451;28;1989;-80
2023/06/25 09:58:49;;;;;;;;;;;;;;;22.66;31.30;97574.47;4941365;29;899;-80
2023/06/25 10:01:15;;;;;;;;;;;;;;;22.77;30.94;97578.47;4943145;29;866;-79
2023/06/25 10:03:40;;;;;;;;;;;;;;;22.82;30.97;97580.72;4941682;29;944;-80
2023/06/25 10:06:06;;;;;;;;;;;;;;;22.86;30.72;97564.34;4959417;29;827;-79
2023/06/25 10:08:32;;;;;;;;;;;;;;;22.86;30.61;97567.19;4960281;29;885;-79
2023/06/25 10:10:58;;;;;;;;;;;;;;;22.88;30.74;97561.84;4946414;29;955;-79
2023/06/25 10:13:23;;;;;;;;;;;;;;;22.80;30.69;97563.38;4960330;29;950;-79
2023/06/25 10:15:55;;;;;;;;;;;;;;;22.92;30.50;97561.72;4947387;28;1911;-79
2023/06/25 10:18:22;;;;;;;;;;;;;;;22.80;31.03;97554.88;4948054;28;841;-80
2023/06/25 10:20:47;;;;;;;;;;;;;;;22.60;31.34;97552.38;4933214;28;966;-80
2023/06/25 10:23:13;;;;;;;;;;;;;;;22.72;31.29;97547.88;4963962;28;770;-79
2023/06/25 10:25:39;;;;;;;;;;;;;;;22.94;30.74;97552.75;4964995;28;873;-79
2023/06/25 10:28:05;;;;;;;;;;;;;;;22.73;31.13;97557.16;4979806;28;716;-79
2023/06/25 10:30:38;;;;;;;;;;;;;;;22.60;31.08;97551.59;4963201;28;1384;-79
2023/06/25 10:33:04;;;;;;;;;;;;;;;22.75;30.91;97546.16;5002169;28;1053;-80
2023/06/25 10:35:34;;;;;;;;;;;;;;;22.86;30.68;97547.31;5003392;28;1977;-79
2023/06/25 10:38:00;;;;;;;;;;;;;;;22.90;30.87;97549.25;5002784;28;814;-79
2023/06/25 10:40:31;;;;;;;;;;;;;;;22.68;30.92;97547.22;4986933;28;1430;-79
2023/06/25 10:42:57;;;;;;;;;;;;;;;22.77;30.81;97537.97;5002890;28;826;-79
2023/06/25 10:45:22;;;;;;;;;;;;;;;22.90;30.79;97532.22;5004835;28;953;-79
2023/06/25 10:47:48;;;;;;;;;;;;;;;23.07;30.47;97530.75;5004379;28;799;-80
2023/06/25 10:50:16;;;;;;;;;;;;;;;22.85;30.71;97525.88;5020932;28;718;-80
2023/06/25 10:52:42;;;;;;;;;;;;;;;22.90;30.79;97524.53;5004190;28;1147;-79
2023/06/25 10:55:07;;;;;;;;;;;;;;;22.71;30.94;97523.59;5003389;28;735;-79
2023/06/25 10:57:33;;;;;;;;;;;;;;;22.67;31.15;97517.28;5003615;28;1914;-80
2023/06/25 10:59:58;;;;;;;;;;;;;;;22.76;30.55;97516.53;5019342;28;1082;-79
2023/06/25 11:02:25;;;;;;;;;;;;;;;22.74;30.91;97521.88;5020176;28;774;-80
2023/06/25 11:04:51;;;;;;;;;;;;;;;22.61;31.34;97519.13;5003081;28;1116;-80
2023/06/25 11:07:17;;;;;;;;;;;;;;;22.80;30.87;97520.81;5020182;28;790;-79
2023/06/25 11:09:45;;;;;;;;;;;;;;;22.95;30.55;97526.75;4986355;28;896;-80
2023/06/25 11:12:10;;;;;;;;;;;;;;;22.83;30.91;97525.56;5004615;28;723;-79
2023/06/25 11:14:36;;;;;;;;;;;;;;;22.92;30.69;97521.22;5020415;28;857;-80
2023/06/25 11:17:01;;;;;;;;;;;;;;;22.75;30.89;97524.25;5021432;28;1914;-79
2023/06/25 11:19:27;;;;;;;;;;;;;;;22.64;30.81;97518.22;5019993;28;766;-79
2023/06/25 11:21:53;;;;;;;;;;;;;;;22.61;31.04;97513.47;5004033;28;1176;-79
2023/06/25 11:24:19;;;;;;;;;;;;;;;22.72;30.78;97524.38;5019088;28;1112;-79
2023/06/25 11:26:45;;;;;;;;;;;;;;;22.85;30.57;97514.53;4982682;28;898;-79
2023/06/25 11:29:10;;;;;;;;;;;;;;;22.85;30.77;97497.53;4966236;28;1121;-79
2023/06/25 11:31:48;;;;;;;;;;;;;;;22.80;30.71;97498.13;4982791;28;890;-79
2023/06/25 11:34:20;;;;;;;;;;;;;;;22.87;30.48;97499.88;5018070;28;767;-80
2023/06/25 11:36:47;;;;;;;;;;;;;;;22.80;30.63;97486.78;5018895;28;1887;-79
2023/06/25 11:39:13;;;;;;;;;;;;;;;22.81;30.68;97476.22;4962278;28;1309;-79
2023/06/25 11:41:38;;;;;;;;;;;;;;;22.79;30.61;97473.84;4962913;28;856;-80
2023/06/25 11:44:04;;;;;;;;;;;;;;;22.77;30.83;97464.22;4978943;28;1566;-79
2023/06/25 11:46:29;;;;;;;;;;;;;;;22.73;30.93;97481.38;4975450;28;788;-80
2023/06/25 11:48:55;;;;;;;;;;;;;;;22.79;30.83;97479.50;4924231;29;1007;-79
2023/06/25 11:51:20;;;;;;;;;;;;;;;22.90;30.77;97478.31;4924454;29;1396;-79
2023/06/25 11:53:46;;;;;;;;;;;;;;;22.76;31.11;97479.66;4923700;29;946;-80
2023/06/25 11:56:11;;;;;;;;;;;;;;;22.76;30.84;97474.78;4924347;29;1979;-80
2023/06/25 11:58:37;;;;;;;;;;;;;;;22.77;31.08;97475.56;4953659;29;948;-79
2023/06/25 12:01:02;;;;;;;;;;;;;;;22.76;31.04;97477.63;4943463;29;948;-79
2023/06/25 12:03:30;;;;;;;;;;;;;;;22.87;30.45;97469.47;4958305;29;1151;-79
2023/06/25 12:05:55;;;;;;;;;;;;;;;23.01;30.45;97464.53;4944341;29;1175;-79
2023/06/25 12:08:21;;;;;;;;;;;;;;;22.87;30.65;97472.31;4958503;29;1253;-79
2023/06/25 12:10:46;;;;;;;;;;;;;;;22.81;30.56;97477.00;4957819;28;805;-79
2023/06/25 12:13:12;;;;;;;;;;;;;;;22.62;30.97;97495.19;4978371;28;936;-79
2023/06/25 12:15:37;;;;;;;;;;;;;;;22.80;30.64;97489.63;4994978;28;1914;-79
2023/06/25 12:18:03;;;;;;;;;;;;;;;22.58;31.04;97486.03;4977334;28;905;-79
2023/06/25 12:20:28;;;;;;;;;;;;;;;22.69;30.72;97472.25;4978242;28;852;-79
2023/06/25 12:22:54;;;;;;;;;;;;;;;22.65;30.55;97463.06;4993782;28;1124;-79
2023/06/25 12:25:20;;;;;;;;;;;;;;;22.64;30.50;97450.16;4980992;28;1054;-79
2023/06/25 12:27:45;;;;;;;;;;;;;;;22.84;30.27;97450.53;5033399;28;818;-79
2023/06/25 12:30:13;;;;;;;;;;;;;;;22.64;30.40;97472.84;5046126;28;938;-79
2023/06/25 12:32:38;;;;;;;;;;;;;;;22.74;30.46;97488.66;5040652;28;1136;-79
2023/06/25 12:35:04;;;;;;;;;;;;;;;22.61;30.38;97479.44;5039313;28;806;-79
2023/06/25 12:37:30;;;;;;;;;;;;;;;22.82;30.08;97466.47;5057162;28;1988;-79
2023/06/25 12:39:55;;;;;;;;;;;;;;;22.75;29.97;97473.22;5023497;28;1155;-79
2023/06/25 12:42:21;;;;;;;;;;;;;;;22.68;30.04;97487.66;5040426;28;773;-79
2023/06/25 12:44:46;;;;;;;;;;;;;;;22.63;30.16;97476.91;5056175;28;770;-79
2023/06/25 12:47:12;;;;;;;;;;;;;;;22.57;30.43;97454.03;5023976;28;787;-79
2023/06/25 12:49:37;;;;;;;;;;;;;;;22.57;30.03;97453.25;5039659;28;1092;-79
2023/06/25 12:52:03;;;;;;;;;;;;;;;22.73;29.98;97470.03;5057703;28;806;-79
2023/06/25 12:54:28;;;;;;;;;;;;;;;22.73;30.05;97498.38;5023363;28;810;-79
2023/06/25 12:56:54;;;;;;;;;;;;;;;22.94;29.43;97490.31;5015748;28;1914;-79